Clover Valley, Nevada Weather observations

Data are for 10 minute period ending at time listed.
 Day   Time   Solar   Ave.   Ave.  Ave.  Vector  Max.   Baro.   Total    
  of    of     Rad.   Air    Rel.  Wind   Wind   Wind  Press.  Precip.   
Year   Day            Temp.  Hum.  Speed  Dir.   Gust                    
2016   (PST)  Kw/m2    F      %     mph   deg.    mph    mb.     in.     
-------------------------------------------------------------------------
 144    3:20   0.00   36.9    86    2.6    19     4.1   823.2    0.00 
 144    3:30   0.00   36.3    87    1.7    46     2.5   823.0    0.00 
 144    3:40   0.00   35.2    89    2.4   320     4.9   823.1    0.00 
 144    3:50   0.00   34.6    90    1.2   332     2.9   823.1    0.00 
 144    4:00   0.00   34.4    90    2.2   348     3.2   823.1    0.00 
 144    4:10   0.00   34.2    89    0.5   336     1.5   823.2    0.00 
 144    4:20   0.00   33.9    90    0.0     0     0.0   823.3    0.00 
 144    4:30   0.01   33.6    90    0.0     0     0.0   823.3    0.00 
 144    4:40   0.01   33.6    91    0.1   296     0.9   823.2    0.00 
 144    4:50   0.02   33.5    89    1.4   249     3.4   823.3    0.00 
 144    5:00   0.03   33.1    89    0.2   262     1.5   823.4    0.00 
 144    5:10   0.07   33.7    90    1.3    26     3.3   823.4    0.00 
 144    5:20   0.07   34.8    90    3.6   331     5.2   823.5    0.00 
 144    5:30   0.09   35.4    91    2.8   328     4.4   823.4    0.00 
 144    5:40   0.08   37.2    88    2.0   328     3.7   823.5    0.00 
 144    5:50   0.19   39.5    85    0.4    93     1.5   823.5    0.00 
 144    6:00   0.17   40.9    78    2.2   106     3.8   823.6    0.00 
 144    6:10   0.26   41.2    76    3.3    97     4.5   823.5    0.00 
 144    6:20   0.31   42.5    73    2.9    70     4.7   823.4    0.00 
 144    6:30   0.38   43.9    70    3.2    72     5.0   823.2    0.00 
 144    6:40   0.24   44.1    69    2.9    84     5.0   823.2    0.00 
 144    6:50   0.34   44.8    69    2.5   127     4.0   823.1    0.00 
 144    7:00   0.35   46.2    66    1.5   151     3.8   823.1    0.00 
 144    7:10   0.48   48.9    62    0.4    94     2.4   823.1    0.00 
 144    7:20   0.52   50.1    58    1.5   275     2.9   823.1    0.00 
 144    7:30   0.54   50.1    58    1.0    20     3.1   823.0    0.00 
 144    7:40   0.57   51.0    54    1.4    79     4.5   823.1    0.00 
 144    7:50   0.57   50.9    52    2.1    70     4.2   823.2    0.00 
 144    8:00   0.63   51.7    52    1.9   124     5.1   823.1    0.00 
 144    8:10   0.50   52.1    50    3.5   137     6.9   823.1    0.00 
 144    8:20   0.66   51.7    49    3.6   144     8.5   823.2    0.00 
 144    8:30   0.69   52.3    48    4.0   116     8.6   823.2    0.00 
 144    8:40   0.72   53.2    44    4.6   161     8.3   823.1    0.00 
 144    8:50   0.76   53.3    45    5.2   136    11.0   823.0    0.00 
 144    9:00   0.76   53.6    44    6.3   153    12.0   822.9    0.00 
 144    9:10   0.78   54.2    40    5.9   162    10.6   822.8    0.00 
 144    9:20   0.82   54.9    39    4.1   161     9.1   822.8    0.00 
 144    9:30   0.83   55.1    42    6.0   138    10.4   822.8    0.00 
 144    9:40   0.70   55.3    41    5.0   147     9.3   822.8    0.00 
 144    9:50   0.93   56.7    35    4.9   159     9.2   822.7    0.00 
 144   10:00   1.04   57.9    40    5.4   157     9.8   822.7    0.00 
 144   10:10   0.84   57.8    37    6.9   146    14.2   822.7    0.00 
 144   10:20   0.30   55.7    38    5.8   153    10.8   822.7    0.00 
 144   10:30   0.26   55.0    39    8.0   157    13.0   822.6    0.00 
 144   10:40   0.45   53.3    52    9.4   151    15.4   822.7    0.00 
 144   10:50   0.86   55.1    48    7.2   122    11.3   822.5    0.00 
 144   11:00   0.28   54.1    44    4.2    99     7.2   822.4    0.00 
 144   11:10   0.49   54.8    44    2.9    37     4.5   822.1    0.00 
 144   11:20   0.39   55.3    41    2.6    14     5.5   822.0    0.00 
 144   11:30   0.63   57.0    38    2.4   116     5.8   821.9    0.00 
 144   11:40   0.55   57.7    34    3.2   260     6.5   821.8    0.00 
 144   11:50   0.53   58.5    38    3.7   354     9.9   821.7    0.00 
 144   12:00   0.34   56.4    41    7.7   342    12.4   821.7    0.00 
 144   12:10   0.23   55.0    40    8.6   292    14.0   821.7    0.00 
 144   12:20   0.14   54.6    40    9.1   287    21.9   821.7    0.00 
 144   12:30   0.10   51.1    49   17.5   275    26.4   821.6    0.00 
 144   12:40   0.05   49.2    59   14.2   271    20.7   821.9    0.02 
 144   12:50   0.39   47.2    74    8.2   322    12.9   821.7    0.02 
 144   13:00   0.97   52.2    66    7.1   356    10.2   821.5    0.00 
 144   13:10   0.67   54.0    55    4.4    27     7.5   821.7    0.00 
 144   13:20   0.46   53.6    56    7.9   111    14.1   821.9    0.00 
 144   13:30   0.66   53.7    56    8.6    96    12.3   822.1    0.00 
 144   13:40   0.46   53.0    59    8.4    98    12.8   822.1    0.00 
 144   13:50   0.57   53.6    55    7.2    86    10.5   822.0    0.00 
 144   14:00   0.29   53.0    56    4.3    74     8.5   821.9    0.00 
 144   14:10   0.32   53.5    55    4.0    43     8.3   821.8    0.00 
 144   14:20   0.42   53.8    54    4.5    10     8.6   821.8    0.00 
 144   14:30   0.60   54.8    51    5.7   338    10.1   821.7    0.00 
 144   14:40   0.64   55.3    50    5.4   346    11.0   821.7    0.00 
 144   14:50   0.47   55.2    51    8.2   326    13.0   821.7    0.00 
 144   15:00   0.32   54.6    52    6.3   328     9.4   821.6    0.00 
 144   15:10   0.27   54.3    50    5.5   324     8.6   821.7    0.00 
 144   15:20   0.26   54.3    50   10.8   279    21.9   821.7    0.00 
 144   15:30   0.20   51.6    55   17.4   263    25.5   821.7    0.00 
 144   15:40   0.15   52.0    53   10.3   269    17.6   821.5    0.00 
 144   15:50   0.18   53.1    48    7.7   262    13.8   821.4    0.00 
 144   16:00   0.16   53.9    48    5.9   263     9.6   821.4    0.00 
 144   16:10   0.13   54.0    48    4.7   245     6.5   821.5    0.00 
 144   16:20   0.12   54.1    46    3.7   217     7.2   821.6    0.00 
 144   16:30   0.13   53.6    48   10.1   239    16.2   821.6    0.00 
 144   16:40   0.17   52.3    52    8.1   290    14.4   821.4    0.00 
 144   16:50   0.17   52.7    51    6.9   284    11.2   821.2    0.00 
 144   17:00   0.29   53.8    46    4.3   243    10.0   821.1    0.00 
 144   17:10   0.38   56.2    42    4.3   225     7.9   821.1    0.00 
 144   17:20   0.25   55.9    41    3.1   194     6.6   821.2    0.00 
 144   17:30   0.19   55.9    42    1.7   188     4.2   821.1    0.00 
 144   17:40   0.17   55.1    46    3.1   190     6.6   821.1    0.00 
 144   17:50   0.23   54.5    50    4.5   155     8.8   821.1    0.00 
 144   18:00   0.17   54.7    49    2.9   170     5.2   821.1    0.00 
 144   18:10   0.11   54.9    46    2.2   201     4.0   821.1    0.00 
 144   18:20   0.09   55.6    45    1.9   218     3.2   821.1    0.00 
 144   18:30   0.03   53.9    48    1.6   251     2.9   821.1    0.00 
 144   18:40   0.02   53.1    50    1.2   220     2.5   821.1    0.00 
 144   18:50   0.01   52.0    57    3.0   262     3.7   821.1    0.00 
 144   19:00   0.00   51.0    61    2.9   255     3.6   821.1    0.00 
 144   19:10   0.00   50.6    65    2.6   266     3.4   821.1    0.00 
 144   19:20   0.00   49.4    72    2.3   250     3.7   821.2    0.00 
 144   19:30   0.00   48.9    75    1.4   282     2.5   821.2    0.00 
 144   19:40   0.00   48.1    73    4.0   127     8.0   821.3    0.00 
 144   19:50   0.00   47.3    68    3.4    78     5.0   821.3    0.00 
 144   20:00   0.00   46.8    69    4.0    20     5.7   821.3    0.00 
 144   20:10   0.00   45.8    77    4.8   346     6.0   821.3    0.00 
 144   20:20   0.00   45.1    79    3.9   350     5.0   821.3    0.00 
 144   20:30   0.00   45.1    78    3.1   352     4.1   821.2    0.00 
 144   20:40   0.00   44.6    80    3.1   348     4.1   821.3    0.00 
 144   20:50   0.00   44.9    79    3.3   299     5.0   821.3    0.00 
 144   21:00   0.00   43.5    82    3.4   287     4.2   821.3    0.00 
 144   21:10   0.00   42.4    84    1.7   291     3.5   821.3    0.00 
 144   21:20   0.00   41.4    86    1.7   342     3.5   821.3    0.00 
 144   21:30   0.00   40.9    88    1.7    76     4.3   821.4    0.00 
 144   21:40   0.00   40.4    89    4.0   116     5.2   821.4    0.00 
 144   21:50   0.00   39.7    90    3.1    61     4.0   821.3    0.00 
 144   22:00   0.00   39.0    90    3.1    44     4.1   821.3    0.00 
 144   22:10   0.00   39.7    88    4.3    45     5.0   821.2    0.00 
 144   22:20   0.00   39.5    87    4.1    43     5.0   821.2    0.00 
 144   22:30   0.00   39.5    87    3.2    41     3.9   821.2    0.00 
 144   22:40   0.00   39.5    87    4.3   324     7.5   821.3    0.00 
 144   22:50   0.00   39.4    88    3.9   356     6.7   821.4    0.00 
 144   23:00   0.00   39.9    87    4.4   354     6.6   821.4    0.00 
 144   23:10   0.00   40.7    85    6.2   323     8.8   821.4    0.00 
 144   23:20   0.00   41.4    84    5.2   316     6.5   821.4    0.00 
 144   23:30   0.00   41.5    84    4.8   310     6.7   821.2    0.00 
 144   23:40   0.00   40.9    85    4.9   318     6.2   821.1    0.00 
 144   23:50   0.00   40.3    85    4.6   331     6.1   821.0    0.00 
 145    0:00   0.00   39.2    87    3.0     1     3.9   820.9    0.00 
 145    0:10   0.00   38.6    88    3.0    18     3.4   821.0    0.00 
 145    0:20   0.00   37.9    89    4.1   323     5.0   821.0    0.00 
 145    0:30   0.00   38.1    88    2.9   315     4.6   821.0    0.00 
 145    0:40   0.00   37.9    88    2.7   312     4.1   821.0    0.00 
 145    0:50   0.00   38.4    89    3.3   329     4.6   821.0    0.00 
 145    1:00   0.00   38.3    88    3.6   327     4.2   820.9    0.00 
 145    1:10   0.00   37.8    88    3.2   342     4.2   820.8    0.00 
 145    1:20   0.00   37.4    88    3.0   346     5.4   820.7    0.00 
 145    1:30   0.00   37.3    87    2.4   331     3.9   820.8    0.00 
 145    1:40   0.00   36.8    88    1.5   325     2.3   820.8    0.00 
 145    1:50   0.00   36.6    89    1.4   343     2.3   820.8    0.00 
 145    2:00   0.00   35.9    90    1.7    11     2.3   820.8    0.00 
 145    2:10   0.00   36.1    92    2.9    28     6.1   820.9    0.00 
 145    2:20   0.00   36.4    91    3.2    26     7.6   821.1    0.00 
 145    2:30   0.00   36.7    90    2.8   333     5.1   821.0    0.00 
 145    2:40   0.00   36.1    91    2.2   329     3.2   821.0    0.00 
 145    2:50   0.00   36.2    93    3.4   306     5.0   821.0    0.00 
 145    3:00   0.00   36.6    93    2.1   319     3.4   821.1    0.00 
 145    3:10   0.00   37.0    93    3.1   331     4.0   821.0    0.00 

Return to Clover Valley graphs page.


Western Regional Climate Center,wrcc@dri.edu